Terminal Aerodrome Forecast
Issued by NWS

Home | Current Version | Previous Version | Text Only | Print | Product List | Glossary On
Versions: 1 2 3 4 5 6 7 8 9 10 11 12 13 14 15 16 17 18 19 20 21 22 23 24 25 26
000
FTUS44 KFWD 230300 CCA
TAFGKY
TAF COR
KGKY 230315Z 2303/2324 26005KT P6SM BKN150
     FM230600 33008KT P6SM BKN140 BKN220
     FM230900 36008KT 6SM RA OVC050
      TEMPO 2313/2316 5SM RA BR BKN025
     FM231900 36011KT P6SM OVC035
     FM232100 34013KT P6SM OVC080=

USA.gov is the U.S. government's official web portal to all federal, state and local government web resources and services.